createdAt,value
2019-02-02T00:01:09.695Z,23.00
2019-02-02T00:03:39.154Z,22.83
2019-02-02T00:06:08.472Z,22.57
2019-02-02T00:08:37.852Z,23.03
2019-02-02T00:11:07.283Z,23.47
2019-02-02T00:13:36.546Z,25.00
2019-02-02T00:16:06.368Z,25.23
2019-02-02T00:18:35.775Z,24.07
2019-02-02T00:21:05.180Z,22.40
2019-02-02T00:23:34.545Z,22.63
2019-02-02T00:26:03.862Z,23.17
2019-02-02T00:28:33.252Z,22.83
2019-02-02T00:31:02.543Z,22.70
2019-02-02T00:33:32.800Z,22.90
2019-02-02T00:36:02.428Z,24.73
2019-02-02T00:38:31.796Z,24.90
2019-02-02T00:41:01.083Z,23.67
2019-02-02T00:43:31.089Z,22.87
2019-02-02T00:46:00.461Z,23.77
2019-02-02T00:48:29.748Z,23.40
2019-02-02T00:50:59.524Z,23.93
2019-02-02T00:53:28.914Z,23.73
2019-02-02T00:55:58.198Z,24.17
2019-02-02T00:58:27.519Z,24.57
2019-02-02T01:00:56.865Z,24.67
2019-02-02T01:03:26.173Z,24.50
2019-02-02T01:05:56.239Z,22.90
2019-02-02T01:08:25.598Z,24.63
2019-02-02T01:10:54.992Z,22.70
2019-02-02T01:13:24.288Z,23.17
2019-02-02T01:15:53.708Z,23.67
2019-02-02T01:18:23.160Z,23.90
2019-02-02T01:20:52.504Z,24.40
2019-02-02T01:23:21.855Z,23.17
2019-02-02T01:25:51.271Z,23.50
2019-02-02T01:28:20.608Z,22.97
2019-02-02T01:30:50.704Z,23.17
2019-02-02T01:33:20.308Z,24.20
2019-02-02T01:35:49.515Z,24.30
2019-02-02T01:38:18.968Z,23.53
2019-02-02T01:40:48.363Z,23.50
2019-02-02T01:43:17.671Z,22.70
2019-02-02T01:45:47.028Z,24.27
2019-02-02T01:48:16.355Z,23.53
2019-02-02T01:50:45.795Z,23.63
2019-02-02T01:53:15.127Z,23.07
2019-02-02T01:55:44.875Z,24.13
2019-02-02T01:58:16.863Z,22.93
2019-02-02T02:00:43.590Z,23.07
2019-02-02T02:03:12.928Z,23.63
2019-02-02T02:05:42.363Z,23.53
2019-02-02T02:08:11.764Z,23.33
2019-02-02T02:10:41.156Z,24.10
2019-02-02T02:13:10.509Z,24.37
2019-02-02T02:15:39.829Z,23.93
2019-02-02T02:18:10.036Z,24.60
2019-02-02T02:20:39.435Z,24.30
2019-02-02T02:23:08.833Z,22.40
2019-02-02T02:25:39.007Z,24.43
2019-02-02T02:28:08.397Z,24.83
2019-02-02T02:30:38.203Z,23.63
2019-02-02T02:33:08.057Z,22.77
2019-02-02T02:35:37.428Z,22.50
2019-02-02T02:38:06.942Z,24.37
2019-02-02T02:40:36.308Z,24.40
2019-02-02T02:43:05.548Z,23.73
2019-02-02T02:45:34.868Z,23.23
2019-02-02T02:48:04.266Z,24.47
2019-02-02T02:50:33.708Z,24.60
2019-02-02T02:53:03.061Z,24.07
2019-02-02T02:55:32.427Z,25.23
2019-02-02T02:58:01.832Z,23.87
2019-02-02T03:00:31.239Z,23.77
2019-02-02T03:03:00.580Z,24.00
2019-02-02T03:05:36.720Z,24.00
2019-02-02T03:08:06.183Z,23.83
2019-02-02T03:10:36.899Z,25.20
2019-02-02T03:13:06.282Z,25.30
2019-02-02T03:15:35.609Z,24.67
2019-02-02T03:18:04.996Z,23.83
2019-02-02T03:20:34.362Z,25.13
2019-02-02T03:23:03.702Z,24.03
2019-02-02T03:25:33.048Z,25.30
2019-02-02T03:28:02.712Z,26.60
2019-02-02T03:30:32.185Z,25.13
2019-02-02T03:33:02.113Z,24.00
2019-02-02T03:35:31.537Z,24.47
2019-02-02T03:38:00.923Z,24.73
2019-02-02T03:40:30.301Z,25.40
2019-02-02T03:42:59.637Z,23.87
2019-02-02T03:45:29.090Z,25.20
2019-02-02T03:47:58.467Z,25.37
2019-02-02T03:50:27.802Z,24.73
2019-02-02T03:52:57.167Z,25.70
2019-02-02T03:55:26.578Z,25.87
2019-02-02T03:57:55.755Z,26.33
2019-02-02T04:00:25.215Z,26.13
2019-02-02T04:02:54.535Z,25.10
2019-02-02T04:05:27.654Z,25.07
2019-02-02T04:07:56.954Z,25.60
2019-02-02T04:10:26.687Z,26.17
2019-02-02T04:12:55.989Z,25.23
2019-02-02T04:15:25.268Z,25.33
2019-02-02T04:17:54.653Z,24.87
2019-02-02T04:20:24.029Z,24.93
2019-02-02T04:22:53.410Z,26.13
2019-02-02T04:25:22.963Z,25.70
2019-02-02T04:27:52.330Z,30.45
2019-02-02T04:30:24.228Z,25.60
2019-02-02T04:32:53.647Z,26.87
2019-02-02T04:35:23.004Z,26.50
2019-02-02T04:37:53.188Z,25.23
2019-02-02T04:40:22.503Z,26.60
2019-02-02T04:42:51.869Z,26.60
2019-02-02T04:45:21.216Z,25.73
2019-02-02T04:47:50.533Z,25.93
2019-02-02T04:50:19.938Z,25.17
2019-02-02T04:52:49.247Z,28.10
2019-02-02T04:55:18.997Z,25.63
2019-02-02T04:57:48.267Z,26.90
2019-02-02T05:00:23.279Z,26.60
2019-02-02T05:02:52.775Z,26.37
2019-02-02T05:05:22.141Z,27.00
2019-02-02T05:07:51.435Z,27.00
2019-02-02T05:10:21.992Z,26.83
2019-02-02T05:12:51.430Z,28.37
2019-02-02T05:15:22.436Z,27.33
2019-02-02T05:17:51.860Z,26.87
2019-02-02T05:20:21.352Z,27.37
2019-02-02T05:22:50.553Z,27.90
2019-02-02T05:25:19.970Z,28.63
2019-02-02T05:27:49.384Z,28.57
2019-02-02T05:30:23.360Z,29.30
2019-02-02T05:32:52.771Z,29.10
2019-02-02T05:35:22.055Z,28.87
2019-02-02T05:37:51.384Z,29.20
2019-02-02T05:40:21.500Z,29.50
2019-02-02T05:42:50.832Z,28.20
2019-02-02T05:45:21.045Z,29.13
2019-02-02T05:47:50.559Z,28.37
2019-02-02T05:50:22.074Z,28.43
2019-02-02T05:52:51.424Z,29.17
2019-02-02T05:55:21.335Z,30.13
2019-02-02T05:57:50.639Z,31.20
2019-02-02T06:00:27.553Z,30.50
2019-02-02T06:02:56.788Z,28.80
2019-02-02T06:05:26.284Z,28.30
2019-02-02T06:07:55.600Z,29.50
2019-02-02T06:10:25.081Z,29.57
2019-02-02T06:12:54.388Z,28.33
2019-02-02T06:15:23.688Z,27.13
2019-02-02T06:17:53.019Z,28.47
2019-02-02T06:20:22.460Z,27.40
2019-02-02T06:22:51.810Z,30.27
2019-02-02T06:25:22.117Z,28.47
2019-02-02T06:27:51.796Z,27.70
2019-02-02T06:30:21.272Z,29.40
2019-02-02T06:32:50.576Z,30.93
2019-02-02T06:35:19.983Z,30.73
2019-02-02T06:37:49.422Z,30.23
2019-02-02T06:40:19.008Z,29.40
2019-02-02T06:42:48.477Z,28.83
2019-02-02T06:45:24.847Z,29.80
2019-02-02T06:47:54.255Z,30.03
2019-02-02T06:50:23.660Z,30.77
2019-02-02T06:52:59.819Z,31.83
2019-02-02T06:55:29.177Z,31.23
2019-02-02T06:57:58.503Z,30.87
2019-02-02T07:00:28.004Z,30.27
2019-02-02T07:02:57.363Z,30.33
2019-02-02T07:05:26.720Z,31.60
2019-02-02T07:07:57.083Z,28.43
2019-02-02T07:10:27.220Z,29.53
2019-02-02T07:12:56.583Z,30.40
2019-02-02T07:15:28.124Z,30.43
2019-02-02T07:17:57.598Z,29.83
2019-02-02T07:20:26.979Z,30.37
2019-02-02T07:22:56.279Z,31.60
2019-02-02T07:25:25.670Z,30.20
2019-02-02T07:27:55.067Z,29.63
2019-02-02T07:30:28.653Z,30.23
2019-02-02T07:32:54.412Z,30.33
2019-02-02T07:35:23.869Z,31.27
2019-02-02T07:37:54.263Z,29.03
2019-02-02T07:40:23.627Z,29.40
2019-02-02T07:42:53.011Z,28.83
2019-02-02T07:45:26.066Z,28.33
2019-02-02T07:47:55.979Z,28.90
2019-02-02T07:50:25.299Z,27.47
2019-02-02T07:52:54.652Z,28.40
2019-02-02T07:55:24.036Z,29.67
2019-02-02T07:57:53.382Z,29.13
2019-02-02T08:00:39.722Z,29.03
2019-02-02T08:02:57.375Z,28.23
2019-02-02T08:05:26.702Z,27.67
2019-02-02T08:07:56.120Z,25.53
2019-02-02T08:10:25.523Z,26.90
2019-02-02T08:12:54.994Z,26.60
2019-02-02T08:15:28.539Z,25.57
2019-02-02T08:17:57.993Z,27.50
2019-02-02T08:20:28.276Z,25.87
2019-02-02T08:22:57.645Z,25.40
2019-02-02T08:25:27.540Z,25.73
2019-02-02T08:27:57.062Z,25.37
2019-02-02T08:30:29.460Z,25.73
2019-02-02T08:32:58.843Z,25.67
2019-02-02T08:35:28.299Z,25.20
2019-02-02T08:37:57.661Z,27.20
2019-02-02T08:40:27.071Z,25.00
2019-02-02T08:42:56.371Z,26.17
2019-02-02T08:45:25.697Z,25.20
2019-02-02T08:47:55.014Z,25.63
2019-02-02T08:50:31.000Z,27.33
2019-02-02T08:53:00.470Z,27.07
2019-02-02T08:55:29.755Z,26.37
2019-02-02T08:57:59.023Z,26.60
2019-02-02T09:00:28.511Z,27.00
2019-02-02T09:02:57.868Z,26.07
2019-02-02T09:05:27.440Z,26.33
2019-02-02T09:07:56.690Z,25.03
2019-02-02T09:10:27.869Z,27.33
2019-02-02T09:12:57.757Z,26.83
2019-02-02T09:15:28.090Z,27.23
2019-02-02T09:17:57.645Z,28.60
2019-02-02T09:20:26.928Z,26.93
2019-02-02T09:23:05.916Z,27.03
2019-02-02T09:25:25.539Z,27.13
2019-02-02T09:27:54.968Z,25.27
2019-02-02T09:30:28.732Z,26.03
2019-02-02T09:32:58.077Z,28.63
2019-02-02T09:35:27.712Z,28.83
2019-02-02T09:37:57.025Z,28.77
2019-02-02T09:40:26.337Z,29.23
2019-02-02T09:42:55.628Z,29.97
2019-02-02T09:45:25.102Z,29.27
2019-02-02T09:47:54.544Z,29.03
2019-02-02T09:50:25.135Z,28.87
2019-02-02T09:52:55.343Z,28.57
2019-02-02T09:55:25.014Z,27.57
2019-02-02T09:57:58.016Z,28.13
2019-02-02T10:00:29.940Z,28.57
2019-02-02T10:02:59.407Z,26.43
2019-02-02T10:05:29.690Z,30.13
2019-02-02T10:07:59.041Z,28.67
2019-02-02T10:10:30.909Z,29.37
2019-02-02T10:13:00.268Z,28.63
2019-02-02T10:15:30.259Z,28.57
2019-02-02T10:17:59.545Z,29.03
2019-02-02T10:20:30.729Z,29.67
2019-02-02T10:23:00.516Z,29.60
2019-02-02T10:25:31.137Z,28.57
2019-02-02T10:28:00.356Z,31.70
2019-02-02T10:30:34.088Z,29.17
2019-02-02T10:33:03.532Z,29.97
2019-02-02T10:35:32.935Z,29.77
2019-02-02T10:38:02.272Z,28.87
2019-02-02T10:40:31.579Z,29.93
2019-02-02T10:43:00.887Z,30.87
2019-02-02T10:45:30.176Z,29.97
2019-02-02T10:47:59.424Z,31.67
2019-02-02T10:50:28.814Z,29.43
2019-02-02T10:52:58.240Z,29.10
2019-02-02T10:55:27.662Z,31.13
2019-02-02T10:57:57.010Z,32.40
2019-02-02T11:00:30.580Z,33.00
2019-02-02T11:02:59.949Z,31.77
2019-02-02T11:05:29.429Z,33.43
2019-02-02T11:07:58.936Z,31.07
2019-02-02T11:10:30.326Z,30.77
2019-02-02T11:13:00.317Z,29.33
2019-02-02T11:15:29.722Z,29.53
2019-02-02T11:17:59.391Z,27.47
2019-02-02T11:20:31.323Z,28.57
2019-02-02T11:23:00.854Z,29.30
2019-02-02T11:25:30.191Z,27.63
2019-02-02T11:27:59.430Z,28.23
2019-02-02T11:30:29.053Z,28.03
2019-02-02T11:32:58.366Z,28.90
2019-02-02T11:35:27.716Z,28.87
2019-02-02T11:37:57.115Z,26.03
2019-02-02T11:40:30.220Z,28.07
2019-02-02T11:42:59.631Z,26.87
2019-02-02T11:45:29.187Z,26.07
2019-02-02T11:47:58.552Z,25.53
2019-02-02T11:50:27.844Z,25.37
2019-02-02T11:52:57.151Z,24.63
2019-02-02T11:55:26.480Z,24.23
2019-02-02T11:57:55.791Z,24.97
2019-02-02T12:00:42.208Z,23.90
2019-02-02T12:03:11.480Z,25.27
2019-02-02T12:05:40.845Z,25.50
2019-02-02T12:08:10.192Z,25.73
2019-02-02T12:10:39.468Z,25.53
2019-02-02T12:13:08.773Z,27.40
2019-02-02T12:15:39.099Z,25.77
2019-02-02T12:18:08.504Z,26.40
2019-02-02T12:20:37.843Z,25.83
2019-02-02T12:23:07.309Z,24.67
2019-02-02T12:25:37.435Z,25.57
2019-02-02T12:28:09.158Z,25.73
2019-02-02T12:30:37.383Z,25.27
2019-02-02T12:33:07.320Z,26.50
2019-02-02T12:35:37.260Z,27.10
2019-02-02T12:38:06.527Z,27.50
2019-02-02T12:40:35.891Z,27.47
2019-02-02T12:43:05.531Z,27.67
2019-02-02T12:45:39.711Z,29.23
2019-02-02T12:48:09.045Z,28.87
2019-02-02T12:50:38.384Z,30.07
2019-02-02T12:53:12.548Z,28.03
2019-02-02T12:55:41.983Z,29.97
2019-02-02T12:58:11.376Z,33.13
2019-02-02T13:00:40.930Z,29.47
2019-02-02T13:03:10.256Z,29.20
2019-02-02T13:05:39.684Z,31.10
2019-02-02T13:08:09.065Z,32.07
2019-02-02T13:10:38.450Z,31.50
2019-02-02T13:13:07.839Z,32.13
2019-02-02T13:15:37.169Z,31.20
2019-02-02T13:18:06.572Z,32.73
2019-02-02T13:20:35.973Z,31.93
2019-02-02T13:23:05.338Z,30.97
2019-02-02T13:25:34.700Z,31.53
2019-02-02T13:28:03.976Z,32.23
2019-02-02T13:30:35.651Z,30.50
2019-02-02T13:33:06.163Z,31.03
2019-02-02T13:35:38.777Z,30.43
2019-02-02T13:38:08.211Z,30.03
2019-02-02T13:40:37.569Z,29.27
2019-02-02T13:43:06.944Z,31.50
2019-02-02T13:45:36.268Z,28.77
2019-02-02T13:48:05.763Z,29.63
2019-02-02T13:50:35.196Z,30.33
2019-02-02T13:53:05.005Z,30.67
2019-02-02T13:55:36.032Z,29.87
2019-02-02T13:58:06.112Z,29.60
2019-02-02T14:00:36.122Z,30.57
2019-02-02T14:03:05.440Z,30.40
2019-02-02T14:05:34.751Z,30.67
2019-02-02T14:08:05.003Z,31.53
2019-02-02T14:10:35.306Z,31.40
2019-02-02T14:13:04.691Z,32.07
2019-02-02T14:15:34.060Z,32.93
2019-02-02T14:18:03.413Z,32.03
2019-02-02T14:20:32.824Z,32.73
2019-02-02T14:23:02.221Z,31.43
2019-02-02T14:25:31.619Z,31.43
2019-02-02T14:28:00.905Z,32.07
2019-02-02T14:30:30.219Z,31.83
2019-02-02T14:32:59.585Z,32.73
2019-02-02T14:35:29.291Z,31.50
2019-02-02T14:37:58.587Z,32.80
2019-02-02T14:40:28.088Z,34.80
2019-02-02T14:42:57.519Z,31.60
2019-02-02T14:45:28.071Z,32.47
2019-02-02T14:47:56.951Z,32.20
2019-02-02T14:50:26.907Z,32.67
2019-02-02T14:52:57.162Z,31.93
2019-02-02T14:55:28.879Z,33.37
2019-02-02T14:57:59.099Z,32.27
2019-02-02T15:00:32.592Z,31.83
2019-02-02T15:03:03.363Z,30.57
2019-02-02T15:05:42.402Z,32.77
2019-02-02T15:08:00.998Z,32.23
2019-02-02T15:10:30.313Z,32.33
2019-02-02T15:12:59.605Z,33.37
2019-02-02T15:15:28.954Z,34.67
2019-02-02T15:17:58.327Z,34.30
2019-02-02T15:20:33.144Z,33.73
2019-02-02T15:23:03.078Z,34.43
2019-02-02T15:25:32.508Z,34.07
2019-02-02T15:28:02.290Z,35.37
2019-02-02T15:30:31.947Z,34.37
2019-02-02T15:33:01.253Z,34.47
2019-02-02T15:35:31.992Z,34.97
2019-02-02T15:38:01.458Z,33.43
2019-02-02T15:40:31.648Z,34.47
2019-02-02T15:43:00.038Z,36.53
2019-02-02T15:45:30.380Z,35.67
2019-02-02T15:47:59.794Z,35.50
2019-02-02T15:50:29.127Z,36.03
2019-02-02T15:52:58.453Z,35.23
2019-02-02T15:55:28.029Z,35.47
2019-02-02T15:57:57.380Z,35.20
2019-02-02T16:00:31.555Z,35.63
2019-02-02T16:03:01.727Z,34.13
2019-02-02T16:05:31.631Z,34.67
2019-02-02T16:08:03.162Z,33.37
2019-02-02T16:10:32.862Z,34.60
2019-02-02T16:13:02.435Z,33.73
2019-02-02T16:15:34.255Z,33.20
2019-02-02T16:18:02.990Z,33.63
2019-02-02T16:20:36.731Z,33.07
2019-02-02T16:23:07.435Z,32.83
2019-02-02T16:25:36.827Z,35.07
2019-02-02T16:28:06.892Z,35.10
2019-02-02T16:30:36.248Z,35.77
2019-02-02T16:33:05.547Z,36.40
2019-02-02T16:35:35.731Z,33.10
2019-02-02T16:38:05.358Z,35.07
2019-02-02T16:40:34.690Z,35.27
2019-02-02T16:43:04.063Z,34.80
2019-02-02T16:45:33.487Z,33.30
2019-02-02T16:48:02.870Z,34.33
2019-02-02T16:50:32.215Z,35.85
2019-02-02T16:53:01.584Z,35.77
2019-02-02T16:55:31.040Z,36.77
2019-02-02T16:58:00.324Z,35.70
2019-02-02T17:00:32.989Z,35.67
2019-02-02T17:03:02.465Z,39.20
2019-02-02T17:05:32.438Z,39.07
2019-02-02T17:08:01.884Z,38.80
2019-02-02T17:10:34.352Z,37.00
2019-02-02T17:13:03.734Z,33.93
2019-02-02T17:15:33.345Z,38.00
2019-02-02T17:18:02.766Z,37.30
2019-02-02T17:20:36.057Z,38.80
2019-02-02T17:23:05.493Z,36.23
2019-02-02T17:25:34.981Z,37.00
2019-02-02T17:28:05.391Z,39.07
2019-02-02T17:30:35.090Z,35.73
2019-02-02T17:33:07.761Z,36.17
2019-02-02T17:35:37.167Z,35.80
2019-02-02T17:38:06.729Z,36.07
2019-02-02T17:40:36.062Z,34.17
2019-02-02T17:43:05.459Z,32.93
2019-02-02T17:45:34.793Z,33.83
2019-02-02T17:48:04.421Z,34.03
2019-02-02T17:50:33.904Z,32.77
2019-02-02T17:53:03.284Z,33.07
2019-02-02T17:55:32.638Z,32.53
2019-02-02T17:58:01.983Z,33.80
2019-02-02T18:00:41.279Z,32.73
2019-02-02T18:03:11.544Z,33.43
2019-02-02T18:05:40.948Z,33.10
2019-02-02T18:08:10.351Z,31.70
2019-02-02T18:10:39.912Z,31.97
2019-02-02T18:13:09.351Z,31.30
2019-02-02T18:15:38.797Z,31.07
2019-02-02T18:18:08.239Z,32.50
2019-02-02T18:20:37.726Z,31.17
2019-02-02T18:23:07.153Z,30.60
2019-02-02T18:25:36.721Z,31.03
2019-02-02T18:28:06.283Z,30.80
2019-02-02T18:30:35.708Z,30.50
2019-02-02T18:33:05.205Z,29.77
2019-02-02T18:35:34.885Z,30.77
2019-02-02T18:38:04.357Z,34.75
2019-02-02T18:40:33.775Z,31.17
2019-02-02T18:43:03.096Z,30.37
2019-02-02T18:45:33.460Z,28.70
2019-02-02T18:48:02.897Z,29.20
2019-02-02T18:50:32.272Z,30.73
2019-02-02T18:53:02.310Z,29.37
2019-02-02T18:55:44.270Z,29.37
2019-02-02T18:58:14.304Z,28.30
2019-02-02T19:00:44.371Z,30.80
2019-02-02T19:03:13.772Z,29.20
2019-02-02T19:05:43.118Z,30.60
2019-02-02T19:08:12.624Z,30.27
2019-02-02T19:10:42.143Z,30.17
2019-02-02T19:13:11.518Z,31.27
2019-02-02T19:15:41.413Z,30.93
2019-02-02T19:18:10.821Z,31.23
2019-02-02T19:20:40.161Z,30.50
2019-02-02T19:23:09.590Z,38.65
2019-02-02T19:25:38.998Z,33.13
2019-02-02T19:28:09.317Z,31.90
2019-02-02T19:30:39.037Z,32.23
2019-02-02T19:33:08.523Z,31.73
2019-02-02T19:35:37.943Z,31.67
2019-02-02T19:38:07.518Z,31.77
2019-02-02T19:40:37.033Z,32.50
2019-02-02T19:43:06.491Z,32.90
2019-02-02T19:45:35.869Z,33.43
2019-02-02T19:48:05.298Z,32.03
2019-02-02T19:50:34.822Z,31.83
2019-02-02T19:53:04.311Z,33.93
2019-02-02T19:55:33.913Z,33.27
2019-02-02T19:58:03.397Z,34.60
2019-02-02T20:00:34.274Z,33.97
2019-02-02T20:03:03.847Z,31.73
2019-02-02T20:05:33.266Z,32.70
2019-02-02T20:08:02.799Z,32.07
2019-02-02T20:10:32.304Z,33.43
2019-02-02T20:13:01.896Z,32.57
2019-02-02T20:15:31.368Z,34.90
2019-02-02T20:18:09.394Z,33.57
2019-02-02T20:20:30.305Z,32.23
2019-02-02T20:22:59.747Z,34.07
2019-02-02T20:25:29.307Z,34.00
2019-02-02T20:27:58.706Z,32.73
2019-02-02T20:30:31.077Z,32.37
2019-02-02T20:33:00.499Z,32.17
2019-02-02T20:35:40.271Z,32.17
2019-02-02T20:37:59.535Z,29.37
2019-02-02T20:40:29.027Z,30.57
2019-02-02T20:42:58.543Z,31.10
2019-02-02T20:45:32.238Z,32.50
2019-02-02T20:48:01.652Z,31.17
2019-02-02T20:50:31.184Z,32.03
2019-02-02T20:53:02.261Z,29.77
2019-02-02T20:55:35.212Z,29.53
2019-02-02T20:58:04.681Z,28.70
2019-02-02T21:00:34.823Z,28.43
2019-02-02T21:03:04.355Z,29.23
2019-02-02T21:05:34.008Z,27.17
2019-02-02T21:08:03.429Z,28.73
2019-02-02T21:10:32.920Z,28.27
2019-02-02T21:13:02.269Z,27.33
2019-02-02T21:15:31.804Z,28.57
2019-02-02T21:18:01.236Z,26.60
2019-02-02T21:20:30.733Z,26.37
2019-02-02T21:23:00.176Z,34.00
2019-02-02T21:25:29.485Z,27.17
2019-02-02T21:27:58.783Z,26.13
2019-02-02T21:30:31.026Z,26.07
2019-02-02T21:33:00.334Z,26.03
2019-02-02T21:35:29.786Z,26.63
2019-02-02T21:37:59.131Z,27.00
2019-02-02T21:40:31.268Z,26.60
2019-02-02T21:43:00.558Z,25.33
2019-02-02T21:45:30.102Z,25.57
2019-02-02T21:47:59.448Z,24.70
2019-02-02T21:50:28.865Z,24.33
2019-02-02T21:52:58.887Z,25.03
2019-02-02T21:55:29.326Z,25.40
2019-02-02T21:57:58.700Z,24.50
2019-02-02T22:00:32.421Z,25.37
2019-02-02T22:03:01.751Z,24.07
2019-02-02T22:05:31.081Z,23.40
2019-02-02T22:08:00.309Z,21.67
2019-02-02T22:10:29.624Z,23.27
2019-02-02T22:12:59.026Z,23.43
2019-02-02T22:15:28.540Z,22.93
2019-02-02T22:17:57.932Z,23.03
2019-02-02T22:20:27.236Z,22.77
2019-02-02T22:22:56.574Z,22.20
2019-02-02T22:25:28.469Z,23.90
2019-02-02T22:27:57.792Z,23.10
2019-02-02T22:30:31.016Z,22.37
2019-02-02T22:33:00.513Z,23.63
2019-02-02T22:35:29.988Z,21.60
2019-02-02T22:37:59.935Z,23.43
2019-02-02T22:40:29.424Z,24.20
2019-02-02T22:42:59.247Z,23.13
2019-02-02T22:45:28.616Z,22.77
2019-02-02T22:47:58.583Z,24.17
2019-02-02T22:50:28.260Z,23.63
2019-02-02T22:52:57.627Z,25.43
2019-02-02T22:55:27.012Z,24.77
2019-02-02T22:57:56.860Z,24.17
2019-02-02T23:00:46.677Z,23.77
2019-02-02T23:03:18.203Z,23.93
2019-02-02T23:08:04.793Z,23.87
2019-02-02T23:10:49.866Z,26.83
2019-02-02T23:16:35.556Z,24.80
2019-02-02T23:19:04.903Z,24.20
2019-02-02T23:21:34.276Z,24.97
2019-02-02T23:24:03.895Z,25.67
2019-02-02T23:26:33.431Z,27.20
2019-02-02T23:29:02.755Z,25.87
2019-02-02T23:31:32.140Z,28.85
2019-02-02T23:34:01.669Z,25.57
2019-02-02T23:36:30.937Z,25.20
2019-02-02T23:39:00.284Z,24.70
2019-02-02T23:41:29.823Z,24.77
2019-02-02T23:44:00.025Z,24.33
2019-02-02T23:46:29.320Z,24.60
2019-02-02T23:48:58.644Z,23.03
2019-02-02T23:51:27.977Z,23.90
2019-02-02T23:53:58.203Z,21.80
2019-02-02T23:56:28.887Z,21.73
2019-02-02T23:58:58.247Z,19.97
